KFYVKCDH

Guest
Details From KFYV - DRAKE FLD
To KCDH - HARRELL FLD
Flight Number -
Tags decoded
Created
Modified
Stats Distance 159 nm / 294 km
Max Altitude 0 ft / 0 m
Waypoints 2
Social Downloads 1
Likes 0
Share VATSIM

Download

Looking for another format? Having issues loading an existing format? Contact us
Advertisement - Login to hide

Notes

Requested: KFYV KCDH

Route

KFYV KCDH

ID Type Via Altitude Latitude Longitude Leg Dist Tot Dist Heading (true) Name
O KFYV APT - 0 ft / 0 m 36.00509˚ -94.17006˚ - 0 nm - DRAKE FLD
O KCDH APT - 0 ft / 0 m 33.62280˚ -92.76340˚ 158 nm 158 nm 154° / 155° HARRELL FLD

Altitude Profile

Advertisement - Login to hide

KFYV

Details ICAO KFYV (FYV)
Name DRAKE FLD
Region United States
Timezone America/Chicago (UTC-6.0)
Stats Elevation 1,251 ft / 381 m (AMSL)
Location 36.005094° -94.170057°
Runways 1
Magnetic Variation 1.513° E

METAR

KFYV 160753Z AUTO 22007KT 10SM CLR 01/M03 A3009 RMK AO2 SLP193 T00111033

Decode

TAF

KFYV 160537Z 1606/1706 VRB03KT P6SM SKC FM161600 20012G20KT P6SM SKC FM162100 19012G21KT P6SM SCT150 FM170200 18010KT P6SM BKN050 FM170400 18009KT 5SM BR VCSH BKN025 OVC040

Decode

Departure Runways

ID Width Length Bearing (true) Bearing (mag) Surface Threshold Offset Overrun Length
16 100 ft / 30 m 6,018 ft / 1,834 m 168.99° 167.48° Asphalt 0 ft / 0 m 0 ft / 0 m
34 100 ft / 30 m 6,018 ft / 1,834 m 349.00° 347.49° Asphalt 0 ft / 0 m 0 ft / 0 m

KCDH

Details ICAO KCDH
Name HARRELL FLD
Region United States
Timezone America/Chicago (UTC-6.0)
Stats Elevation 130 ft / 40 m (AMSL)
Location 33.622799° -92.763396°
Runways 1
Magnetic Variation 0.677° E

METAR

KCDH 160835Z AUTO 00000KT 10SM CLR M01/M03 A3022 RMK AO2

Decode

TAF

Not found

Destination Runways

ID Width Length Bearing (true) Bearing (mag) Surface Threshold Offset Overrun Length
18 100 ft / 30 m 6,518 ft / 1,987 m 189.02° 188.34° Asphalt 0 ft / 0 m 0 ft / 0 m
36 100 ft / 30 m 6,518 ft / 1,987 m 9.02° 8.34° Asphalt 0 ft / 0 m 0 ft / 0 m